sensor_id;sensor_type;location;lat;lon;timestamp;pressure;altitude;pressure_sealevel;temperature;humidity
69411;BME280;56604;48.652;9.194;2023-03-18T00:01:47;95831.72;;;11.26;51.57
69411;BME280;56604;48.652;9.194;2023-03-18T00:04:12;95825.94;;;11.30;51.67
69411;BME280;56604;48.652;9.194;2023-03-18T00:06:38;95822.81;;;11.28;51.41
69411;BME280;56604;48.652;9.194;2023-03-18T00:09:04;95816.50;;;11.34;51.47
69411;BME280;56604;48.652;9.194;2023-03-18T00:11:30;95815.94;;;11.26;51.80
69411;BME280;56604;48.652;9.194;2023-03-18T00:13:56;95815.94;;;11.26;50.88
69411;BME280;56604;48.652;9.194;2023-03-18T00:16:22;95820.94;;;11.18;51.85
69411;BME280;56604;48.652;9.194;2023-03-18T00:18:48;95826.22;;;11.23;51.61
69411;BME280;56604;48.652;9.194;2023-03-18T00:21:13;95823.06;;;11.16;50.99
69411;BME280;56604;48.652;9.194;2023-03-18T00:23:41;95828.06;;;11.17;51.46
69411;BME280;56604;48.652;9.194;2023-03-18T00:26:07;95829.38;;;11.15;51.22
69411;BME280;56604;48.652;9.194;2023-03-18T00:28:33;95831.19;;;11.09;51.57
69411;BME280;56604;48.652;9.194;2023-03-18T00:31:07;95832.81;;;11.10;51.23
69411;BME280;56604;48.652;9.194;2023-03-18T00:33:35;95827.00;;;11.08;51.02
69411;BME280;56604;48.652;9.194;2023-03-18T00:36:00;95835.16;;;11.07;50.98
69411;BME280;56604;48.652;9.194;2023-03-18T00:38:26;95840.13;;;11.03;50.99
69411;BME280;56604;48.652;9.194;2023-03-18T00:40:53;95839.09;;;10.94;51.00
69411;BME280;56604;48.652;9.194;2023-03-18T00:43:26;95843.31;;;11.00;50.93
69411;BME280;56604;48.652;9.194;2023-03-18T00:45:55;95844.63;;;11.08;50.59
69411;BME280;56604;48.652;9.194;2023-03-18T00:48:21;95834.34;;;11.01;50.58
69411;BME280;56604;48.652;9.194;2023-03-18T00:50:47;95842.78;;;11.03;50.35
69411;BME280;56604;48.652;9.194;2023-03-18T00:53:13;95843.84;;;11.07;49.96
69411;BME280;56604;48.652;9.194;2023-03-18T00:55:39;95847.50;;;11.06;50.56
69411;BME280;56604;48.652;9.194;2023-03-18T00:58:06;95851.72;;;11.02;50.68
69411;BME280;56604;48.652;9.194;2023-03-18T01:00:33;95845.41;;;11.03;50.78
69411;BME280;56604;48.652;9.194;2023-03-18T01:02:59;95845.94;;;11.05;50.44
69411;BME280;56604;48.652;9.194;2023-03-18T01:05:25;95847.25;;;10.97;50.73
69411;BME280;56604;48.652;9.194;2023-03-18T01:07:51;95849.09;;;10.97;50.20
69411;BME280;56604;48.652;9.194;2023-03-18T01:10:17;95845.41;;;11.08;50.17
69411;BME280;56604;48.652;9.194;2023-03-18T01:12:43;95849.59;;;11.04;50.11
69411;BME280;56604;48.652;9.194;2023-03-18T01:15:13;95857.50;;;11.09;50.40
69411;BME280;56604;48.652;9.194;2023-03-18T01:17:39;95851.19;;;11.05;49.78
69411;BME280;56604;48.652;9.194;2023-03-18T01:20:04;95854.38;;;11.07;49.64
69411;BME280;56604;48.652;9.194;2023-03-18T01:22:30;95848.56;;;11.00;50.22
69411;BME280;56604;48.652;9.194;2023-03-18T01:24:56;95854.06;;;11.03;50.05
69411;BME280;56604;48.652;9.194;2023-03-18T01:27:22;95855.94;;;11.08;49.82
69411;BME280;56604;48.652;9.194;2023-03-18T01:29:47;95850.66;;;11.03;49.89
69411;BME280;56604;48.652;9.194;2023-03-18T01:32:12;95850.13;;;11.01;50.30
69411;BME280;56604;48.652;9.194;2023-03-18T01:34:38;95849.59;;;11.04;49.72
69411;BME280;56604;48.652;9.194;2023-03-18T01:37:05;95845.16;;;11.15;49.00
69411;BME280;56604;48.652;9.194;2023-03-18T01:39:31;95841.22;;;11.22;49.00
69411;BME280;56604;48.652;9.194;2023-03-18T01:41:58;95842.25;;;11.26;48.58
69411;BME280;56604;48.652;9.194;2023-03-18T01:44:23;95836.22;;;11.26;48.42
69411;BME280;56604;48.652;9.194;2023-03-18T01:46:51;95841.22;;;11.17;48.55
69411;BME280;56604;48.652;9.194;2023-03-18T01:49:41;95844.91;;;11.16;48.77
69411;BME280;56604;48.652;9.194;2023-03-18T01:52:34;95839.63;;;11.16;48.99
69411;BME280;56604;48.652;9.194;2023-03-18T01:55:05;95838.84;;;11.21;48.69
69411;BME280;56604;48.652;9.194;2023-03-18T01:57:32;95842.53;;;11.20;49.23
69411;BME280;56604;48.652;9.194;2023-03-18T01:59:59;95832.25;;;11.23;48.92
69411;BME280;56604;48.652;9.194;2023-03-18T02:02:25;95842.28;;;11.21;48.86
69411;BME280;56604;48.652;9.194;2023-03-18T02:04:54;95842.25;;;11.26;48.83
69411;BME280;56604;48.652;9.194;2023-03-18T02:07:25;95844.38;;;11.24;49.10
69411;BME280;56604;48.652;9.194;2023-03-18T02:09:52;95836.47;;;11.19;49.81
69411;BME280;56604;48.652;9.194;2023-03-18T02:12:26;95830.69;;;11.07;49.32
69411;BME280;56604;48.652;9.194;2023-03-18T02:14:54;95829.09;;;11.11;49.94
69411;BME280;56604;48.652;9.194;2023-03-18T02:17:24;95842.78;;;11.08;49.44
69411;BME280;56604;48.652;9.194;2023-03-18T02:20:25;95843.28;;;10.95;50.58
69411;BME280;56604;48.652;9.194;2023-03-18T02:22:58;95847.22;;;10.87;49.84
69411;BME280;56604;48.652;9.194;2023-03-18T02:28:09;95846.94;;;10.78;50.64
69411;BME280;56604;48.652;9.194;2023-03-18T02:30:39;95845.63;;;10.76;50.60
69411;BME280;56604;48.652;9.194;2023-03-18T02:33:06;95845.09;;;10.74;50.65
69411;BME280;56604;48.652;9.194;2023-03-18T02:35:33;95850.59;;;10.62;50.99
69411;BME280;56604;48.652;9.194;2023-03-18T02:38:00;95857.38;;;10.58;50.90
69411;BME280;56604;48.652;9.194;2023-03-18T02:40:31;95849.25;;;10.54;51.36
69411;BME280;56604;48.652;9.194;2023-03-18T02:43:16;95851.88;;;10.54;51.59
69411;BME280;56604;48.652;9.194;2023-03-18T02:48:20;95849.50;;;10.48;52.07
69411;BME280;56604;48.652;9.194;2023-03-18T02:50:47;95848.16;;;10.45;52.23
69411;BME280;56604;48.652;9.194;2023-03-18T02:53:14;95853.16;;;10.42;51.91
69411;BME280;56604;48.652;9.194;2023-03-18T02:55:40;95853.94;;;10.52;51.90
69411;BME280;56604;48.652;9.194;2023-03-18T02:58:06;95859.72;;;10.49;51.93
69411;BME280;56604;48.652;9.194;2023-03-18T03:00:33;95852.06;;;10.38;52.89
69411;BME280;56604;48.652;9.194;2023-03-18T03:02:59;95855.22;;;10.40;52.29
69411;BME280;56604;48.652;9.194;2023-03-18T03:05:24;95849.19;;;10.44;52.60
69411;BME280;56604;48.652;9.194;2023-03-18T03:07:49;95844.75;;;10.45;52.32
69411;BME280;56604;48.652;9.194;2023-03-18T03:10:15;95855.50;;;10.43;52.16
69411;BME280;56604;48.652;9.194;2023-03-18T03:12:41;95855.78;;;10.47;51.84
69411;BME280;56604;48.652;9.194;2023-03-18T03:15:07;95864.19;;;10.49;52.06
69411;BME280;56604;48.652;9.194;2023-03-18T03:17:33;95874.66;;;10.39;52.97
69411;BME280;56604;48.652;9.194;2023-03-18T03:19:59;95878.59;;;10.41;52.95
69411;BME280;56604;48.652;9.194;2023-03-18T03:22:25;95874.13;;;10.31;52.68
69411;BME280;56604;48.652;9.194;2023-03-18T03:24:51;95870.88;;;10.24;53.17
69411;BME280;56604;48.652;9.194;2023-03-18T03:27:17;95868.00;;;10.26;53.87
69411;BME280;56604;48.652;9.194;2023-03-18T03:29:42;95873.50;;;10.24;53.67
69411;BME280;56604;48.652;9.194;2023-03-18T03:32:08;95883.00;;;10.25;53.26
69411;BME280;56604;48.652;9.194;2023-03-18T03:34:34;95885.31;;;10.17;53.59
69411;BME280;56604;48.652;9.194;2023-03-18T03:36:59;95879.78;;;10.18;53.89
69411;BME280;56604;48.652;9.194;2023-03-18T03:39:25;95878.19;;;10.12;53.87
69411;BME280;56604;48.652;9.194;2023-03-18T03:41:50;95891.81;;;10.09;53.79
69411;BME280;56604;48.652;9.194;2023-03-18T03:44:15;95887.09;;;10.06;54.11
69411;BME280;56604;48.652;9.194;2023-03-18T03:46:41;95890.25;;;10.08;53.76
69411;BME280;56604;48.652;9.194;2023-03-18T03:49:06;95890.72;;;10.00;53.41
69411;BME280;56604;48.652;9.194;2023-03-18T03:51:31;95890.41;;;9.91;54.13
69411;BME280;56604;48.652;9.194;2023-03-18T03:53:57;95892.25;;;9.90;54.80
69411;BME280;56604;48.652;9.194;2023-03-18T03:56:23;95887.47;;;9.82;54.27
69411;BME280;56604;48.652;9.194;2023-03-18T03:58:48;95889.50;;;9.75;54.74
69411;BME280;56604;48.652;9.194;2023-03-18T04:01:13;95878.69;;;9.66;55.42
69411;BME280;56604;48.652;9.194;2023-03-18T04:03:39;95887.91;;;9.69;55.06
69411;BME280;56604;48.652;9.194;2023-03-18T04:06:04;95891.31;;;9.69;54.69
69411;BME280;56604;48.652;9.194;2023-03-18T04:08:30;95880.03;;;9.69;54.71
69411;BME280;56604;48.652;9.194;2023-03-18T04:10:56;95878.97;;;9.70;55.14
69411;BME280;56604;48.652;9.194;2023-03-18T04:13:22;95886.59;;;9.72;54.67
69411;BME280;56604;48.652;9.194;2023-03-18T04:15:48;95878.69;;;9.66;54.95
69411;BME280;56604;48.652;9.194;2023-03-18T04:18:13;95884.44;;;9.63;54.91
69411;BME280;56604;48.652;9.194;2023-03-18T04:20:41;95892.03;;;9.60;55.10
69411;BME280;56604;48.652;9.194;2023-03-18T04:23:06;95887.25;;;9.52;55.23
69411;BME280;56604;48.652;9.194;2023-03-18T04:25:32;95881.44;;;9.50;55.91
69411;BME280;56604;48.652;9.194;2023-03-18T04:27:57;95883.00;;;9.45;56.45
69411;BME280;56604;48.652;9.194;2023-03-18T04:30:23;95885.06;;;9.43;57.03
69411;BME280;56604;48.652;9.194;2023-03-18T04:32:50;95887.75;;;9.49;56.07
69411;BME280;56604;48.652;9.194;2023-03-18T04:35:16;95889.81;;;9.46;56.48
69411;BME280;56604;48.652;9.194;2023-03-18T04:37:42;95888.75;;;9.48;56.71
69411;BME280;56604;48.652;9.194;2023-03-18T04:40:08;95889.25;;;9.39;56.00
69411;BME280;56604;48.652;9.194;2023-03-18T04:42:34;95886.03;;;9.32;56.94
69411;BME280;56604;48.652;9.194;2023-03-18T04:44:59;95888.66;;;9.32;56.55
69411;BME280;56604;48.652;9.194;2023-03-18T04:47:26;95904.38;;;9.32;57.09
69411;BME280;56604;48.652;9.194;2023-03-18T04:49:52;95898.91;;;9.34;56.00
69411;BME280;56604;48.652;9.194;2023-03-18T04:52:17;95899.13;;;9.32;56.62
69411;BME280;56604;48.652;9.194;2023-03-18T04:54:42;95897.81;;;9.30;56.95
69411;BME280;56604;48.652;9.194;2023-03-18T04:57:08;95899.63;;;9.29;56.71
69411;BME280;56604;48.652;9.194;2023-03-18T04:59:33;95891.22;;;9.27;56.70
69411;BME280;56604;48.652;9.194;2023-03-18T05:01:59;95889.53;;;9.16;57.68
69411;BME280;56604;48.652;9.194;2023-03-18T05:04:24;95896.06;;;9.13;58.01
69411;BME280;56604;48.652;9.194;2023-03-18T05:06:50;95887.38;;;9.08;57.80
69411;BME280;56604;48.652;9.194;2023-03-18T05:09:16;95889.19;;;9.07;57.26
69411;BME280;56604;48.652;9.194;2023-03-18T05:11:43;95883.63;;;8.98;58.13
69411;BME280;56604;48.652;9.194;2023-03-18T05:14:08;95886.19;;;8.93;57.52
69411;BME280;56604;48.652;9.194;2023-03-18T05:16:33;95891.13;;;8.90;58.39
69411;BME280;56604;48.652;9.194;2023-03-18T05:18:59;95888.78;;;8.88;58.29
69411;BME280;56604;48.652;9.194;2023-03-18T05:21:24;95894.97;;;8.82;58.51
69411;BME280;56604;48.652;9.194;2023-03-18T05:23:50;95899.75;;;8.85;58.17
69411;BME280;56604;48.652;9.194;2023-03-18T05:26:16;95893.47;;;8.86;57.66
69411;BME280;56604;48.652;9.194;2023-03-18T05:28:41;95897.34;;;8.84;58.32
69411;BME280;56604;48.652;9.194;2023-03-18T05:31:06;95896.56;;;8.83;58.25
69411;BME280;56604;48.652;9.194;2023-03-18T05:33:32;95889.25;;;8.85;57.96
69411;BME280;56604;48.652;9.194;2023-03-18T05:35:57;95895.59;;;8.89;57.42
69411;BME280;56604;48.652;9.194;2023-03-18T05:38:22;95891.41;;;8.93;57.32
69411;BME280;56604;48.652;9.194;2023-03-18T05:40:48;95900.81;;;8.89;58.36
69411;BME280;56604;48.652;9.194;2023-03-18T05:43:14;95902.31;;;8.80;58.28
69411;BME280;56604;48.652;9.194;2023-03-18T05:45:39;95899.13;;;8.78;58.01
69411;BME280;56604;48.652;9.194;2023-03-18T05:48:05;95899.69;;;8.80;58.30
69411;BME280;56604;48.652;9.194;2023-03-18T05:50:42;95903.59;;;8.77;58.52
69411;BME280;56604;48.652;9.194;2023-03-18T05:53:08;95898.63;;;8.81;58.63
69411;BME280;56604;48.652;9.194;2023-03-18T05:55:34;95894.97;;;8.82;59.08
69411;BME280;56604;48.652;9.194;2023-03-18T05:58:00;95898.16;;;8.84;58.02
69411;BME280;56604;48.652;9.194;2023-03-18T06:00:26;95891.06;;;8.85;57.79
69411;BME280;56604;48.652;9.194;2023-03-18T06:02:56;95888.44;;;8.85;58.18
69411;BME280;56604;48.652;9.194;2023-03-18T06:05:22;95891.19;;;8.95;58.89
69411;BME280;56604;48.652;9.194;2023-03-18T06:07:49;95894.59;;;8.95;57.32
69411;BME280;56604;48.652;9.194;2023-03-18T06:10:15;95898.25;;;8.94;57.90
69411;BME280;56604;48.652;9.194;2023-03-18T06:12:41;95896.03;;;9.08;57.99
69411;BME280;56604;48.652;9.194;2023-03-18T06:15:07;95901.31;;;9.13;57.19
69411;BME280;56604;48.652;9.194;2023-03-18T06:17:34;95894.78;;;9.16;57.44
69411;BME280;56604;48.652;9.194;2023-03-18T06:20:00;95902.72;;;9.21;57.27
69411;BME280;56604;48.652;9.194;2023-03-18T06:22:25;95912.69;;;9.24;57.89
69411;BME280;56604;48.652;9.194;2023-03-18T06:24:52;95911.19;;;9.33;57.10
69411;BME280;56604;48.652;9.194;2023-03-18T06:27:17;95909.13;;;9.35;56.34
69411;BME280;56604;48.652;9.194;2023-03-18T06:29:43;95913.09;;;9.38;56.26
69411;BME280;56604;48.652;9.194;2023-03-18T06:32:08;95919.78;;;9.51;56.27
69411;BME280;56604;48.652;9.194;2023-03-18T06:34:34;95911.47;;;9.64;55.99
69411;BME280;56604;48.652;9.194;2023-03-18T06:37:00;95917.72;;;9.95;54.89
69411;BME280;56604;48.652;9.194;2023-03-18T06:39:26;95907.56;;;10.51;53.61
69411;BME280;56604;48.652;9.194;2023-03-18T06:41:53;95916.63;;;10.86;53.16
69411;BME280;56604;48.652;9.194;2023-03-18T06:44:19;95913.81;;;11.08;51.75
69411;BME280;56604;48.652;9.194;2023-03-18T06:46:45;95913.31;;;11.32;50.90
69411;BME280;56604;48.652;9.194;2023-03-18T06:49:11;95902.81;;;11.42;51.20
69411;BME280;56604;48.652;9.194;2023-03-18T06:51:36;95912.81;;;11.45;50.53
69411;BME280;56604;48.652;9.194;2023-03-18T06:54:02;95908.34;;;11.66;49.82
69411;BME280;56604;48.652;9.194;2023-03-18T06:56:28;95914.13;;;11.68;49.42
69411;BME280;56604;48.652;9.194;2023-03-18T06:58:54;95912.84;;;11.86;48.95
69411;BME280;56604;48.652;9.194;2023-03-18T07:01:20;95913.38;;;11.93;48.36
69411;BME280;56604;48.652;9.194;2023-03-18T07:03:45;95915.94;;;12.34;47.78
69411;BME280;56604;48.652;9.194;2023-03-18T07:06:10;95909.00;;;13.13;46.40
69411;BME280;56604;48.652;9.194;2023-03-18T07:08:36;95905.06;;;13.89;44.66
69411;BME280;56604;48.652;9.194;2023-03-18T07:11:02;95913.22;;;14.70;43.07
69411;BME280;56604;48.652;9.194;2023-03-18T07:13:27;95903.63;;;15.17;41.91
69411;BME280;56604;48.652;9.194;2023-03-18T07:15:52;95904.25;;;15.47;41.17
69411;BME280;56604;48.652;9.194;2023-03-18T07:18:20;95910.22;;;16.37;39.47
69411;BME280;56604;48.652;9.194;2023-03-18T07:20:46;95908.47;;;16.60;38.22
69411;BME280;56604;48.652;9.194;2023-03-18T07:23:11;95919.69;;;16.10;39.78
69411;BME280;56604;48.652;9.194;2023-03-18T07:25:36;95927.41;;;17.08;38.01
69411;BME280;56604;48.652;9.194;2023-03-18T07:28:02;95917.06;;;17.21;37.14
69411;BME280;56604;48.652;9.194;2023-03-18T07:30:29;95922.44;;;18.11;36.32
69411;BME280;56604;48.652;9.194;2023-03-18T07:32:54;95924.94;;;17.85;35.67
69411;BME280;56604;48.652;9.194;2023-03-18T07:35:20;95923.75;;;18.22;34.99
69411;BME280;56604;48.652;9.194;2023-03-18T07:37:46;95923.75;;;17.77;35.75
69411;BME280;56604;48.652;9.194;2023-03-18T07:40:12;95923.72;;;18.84;34.85
69411;BME280;56604;48.652;9.194;2023-03-18T07:42:38;95927.22;;;19.20;33.58
69411;BME280;56604;48.652;9.194;2023-03-18T07:45:07;95931.19;;;19.74;33.13
69411;BME280;56604;48.652;9.194;2023-03-18T07:47:33;95931.31;;;20.04;32.95
69411;BME280;56604;48.652;9.194;2023-03-18T07:49:58;95933.91;;;20.39;31.70
69411;BME280;56604;48.652;9.194;2023-03-18T07:52:24;95934.47;;;19.89;31.89
69411;BME280;56604;48.652;9.194;2023-03-18T07:54:50;95929.66;;;20.38;31.86
69411;BME280;56604;48.652;9.194;2023-03-18T07:57:16;95937.63;;;20.64;31.88
69411;BME280;56604;48.652;9.194;2023-03-18T07:59:43;95930.00;;;20.28;32.13
69411;BME280;56604;48.652;9.194;2023-03-18T08:02:13;95930.38;;;20.94;30.86
69411;BME280;56604;48.652;9.194;2023-03-18T08:04:40;95935.28;;;20.92;31.09
69411;BME280;56604;48.652;9.194;2023-03-18T08:07:06;95931.22;;;21.16;30.55
69411;BME280;56604;48.652;9.194;2023-03-18T08:09:32;95957.41;;;19.90;31.98
69411;BME280;56604;48.652;9.194;2023-03-18T08:11:58;95944.72;;;20.89;30.47
69411;BME280;56604;48.652;9.194;2023-03-18T08:14:24;95942.91;;;21.32;29.87
69411;BME280;56604;48.652;9.194;2023-03-18T08:16:49;95938.81;;;21.34;30.35
69411;BME280;56604;48.652;9.194;2023-03-18T08:19:14;95940.88;;;21.71;29.58
69411;BME280;56604;48.652;9.194;2023-03-18T08:21:40;95953.56;;;21.11;30.50
69411;BME280;56604;48.652;9.194;2023-03-18T08:24:07;95949.81;;;21.33;29.32
69411;BME280;56604;48.652;9.194;2023-03-18T08:26:32;95946.97;;;21.38;29.38
69411;BME280;56604;48.652;9.194;2023-03-18T08:28:57;95956.19;;;21.20;30.49
69411;BME280;56604;48.652;9.194;2023-03-18T08:31:23;95946.19;;;22.13;29.25
69411;BME280;56604;48.652;9.194;2023-03-18T08:33:48;95955.53;;;21.23;32.70
69411;BME280;56604;48.652;9.194;2023-03-18T08:36:14;95950.66;;;22.09;30.08
69411;BME280;56604;48.652;9.194;2023-03-18T08:38:40;95947.91;;;22.17;30.73
69411;BME280;56604;48.652;9.194;2023-03-18T08:41:05;95949.56;;;21.89;29.29
69411;BME280;56604;48.652;9.194;2023-03-18T08:43:31;95951.47;;;22.21;28.36
69411;BME280;56604;48.652;9.194;2023-03-18T08:45:56;95937.84;;;22.60;27.53
69411;BME280;56604;48.652;9.194;2023-03-18T08:48:23;95949.09;;;21.87;27.57
69411;BME280;56604;48.652;9.194;2023-03-18T08:50:48;95941.28;;;22.60;28.16
69411;BME280;56604;48.652;9.194;2023-03-18T08:53:14;95943.63;;;22.16;27.96
69411;BME280;56604;48.652;9.194;2023-03-18T08:55:40;95940.84;;;22.58;27.96
69411;BME280;56604;48.652;9.194;2023-03-18T08:58:07;95943.00;;;21.44;28.08
69411;BME280;56604;48.652;9.194;2023-03-18T09:00:34;95942.47;;;21.72;29.20
69411;BME280;56604;48.652;9.194;2023-03-18T09:03:00;95937.72;;;22.68;27.22
69411;BME280;56604;48.652;9.194;2023-03-18T09:05:27;95931.78;;;22.38;28.96
69411;BME280;56604;48.652;9.194;2023-03-18T09:07:52;95943.06;;;21.56;28.11
69411;BME280;56604;48.652;9.194;2023-03-18T09:10:19;95937.72;;;21.77;27.60
69411;BME280;56604;48.652;9.194;2023-03-18T09:12:46;95933.81;;;21.03;27.57
69411;BME280;56604;48.652;9.194;2023-03-18T09:15:13;95931.84;;;21.13;29.03
69411;BME280;56604;48.652;9.194;2023-03-18T09:17:41;95933.94;;;22.70;28.00
69411;BME280;56604;48.652;9.194;2023-03-18T09:20:09;95927.94;;;22.97;28.19
69411;BME280;56604;48.652;9.194;2023-03-18T09:22:37;95927.53;;;22.37;27.78
69411;BME280;56604;48.652;9.194;2023-03-18T09:25:03;95923.84;;;22.30;28.81
69411;BME280;56604;48.652;9.194;2023-03-18T09:27:28;95920.81;;;22.31;28.34
69411;BME280;56604;48.652;9.194;2023-03-18T09:29:54;95937.50;;;21.62;27.50
69411;BME280;56604;48.652;9.194;2023-03-18T09:32:20;95929.56;;;22.65;28.73
69411;BME280;56604;48.652;9.194;2023-03-18T09:34:46;95931.97;;;21.16;27.76
69411;BME280;56604;48.652;9.194;2023-03-18T09:37:11;95921.34;;;22.25;28.89
69411;BME280;56604;48.652;9.194;2023-03-18T09:39:39;95922.66;;;22.88;27.72
69411;BME280;56604;48.652;9.194;2023-03-18T09:42:13;95925.19;;;23.22;26.35
69411;BME280;56604;48.652;9.194;2023-03-18T09:44:42;95927.13;;;22.60;26.42
69411;BME280;56604;48.652;9.194;2023-03-18T09:50:37;95922.75;;;22.55;29.49
69411;BME280;56604;48.652;9.194;2023-03-18T09:55:52;95923.72;;;21.00;30.57
69411;BME280;56604;48.652;9.194;2023-03-18T10:01:05;95910.69;;;20.78;29.60
69411;BME280;56604;48.652;9.194;2023-03-18T10:03:36;95912.94;;;20.03;30.00
69411;BME280;56604;48.652;9.194;2023-03-18T10:06:21;95902.06;;;20.72;30.25
69411;BME280;56604;48.652;9.194;2023-03-18T10:09:07;95902.34;;;21.51;28.57
69411;BME280;56604;48.652;9.194;2023-03-18T10:11:40;95915.63;;;19.94;29.42
69411;BME280;56604;48.652;9.194;2023-03-18T10:17:15;95901.09;;;21.48;29.11
69411;BME280;56604;48.652;9.194;2023-03-18T10:19:49;95895.88;;;21.73;28.14
69411;BME280;56604;48.652;9.194;2023-03-18T10:22:48;95903.47;;;21.50;30.23
69411;BME280;56604;48.652;9.194;2023-03-18T10:25:40;95910.38;;;21.00;27.95
69411;BME280;56604;48.652;9.194;2023-03-18T10:28:31;95900.34;;;20.29;27.57
69411;BME280;56604;48.652;9.194;2023-03-18T10:33:49;95899.19;;;21.28;27.40
69411;BME280;56604;48.652;9.194;2023-03-18T10:36:34;95902.91;;;21.36;26.51
69411;BME280;56604;48.652;9.194;2023-03-18T10:39:12;95905.97;;;21.04;26.84
69411;BME280;56604;48.652;9.194;2023-03-18T10:41:39;95906.75;;;21.05;25.18
69411;BME280;56604;48.652;9.194;2023-03-18T10:44:37;95905.88;;;20.62;25.92
69411;BME280;56604;48.652;9.194;2023-03-18T10:47:13;95908.28;;;20.85;25.42
69411;BME280;56604;48.652;9.194;2023-03-18T10:49:42;95905.88;;;20.62;25.99
69411;BME280;56604;48.652;9.194;2023-03-18T10:54:38;95900.47;;;20.71;26.87
69411;BME280;56604;48.652;9.194;2023-03-18T10:57:05;95894.63;;;20.39;26.88
69411;BME280;56604;48.652;9.194;2023-03-18T10:59:32;95897.28;;;19.49;26.14
69411;BME280;56604;48.652;9.194;2023-03-18T11:02:33;95899.34;;;19.69;28.98
69411;BME280;56604;48.652;9.194;2023-03-18T11:05:03;95884.06;;;20.43;28.03
69411;BME280;56604;48.652;9.194;2023-03-18T11:07:29;95887.19;;;20.15;27.94
69411;BME280;56604;48.652;9.194;2023-03-18T11:10:16;95889.28;;;20.39;28.95
69411;BME280;56604;48.652;9.194;2023-03-18T11:12:42;95883.63;;;21.00;29.34
69411;BME280;56604;48.652;9.194;2023-03-18T11:15:11;95881.53;;;20.85;28.91
69411;BME280;56604;48.652;9.194;2023-03-18T11:17:38;95875.44;;;21.05;29.22
69411;BME280;56604;48.652;9.194;2023-03-18T11:20:30;95870.50;;;20.65;31.01
69411;BME280;56604;48.652;9.194;2023-03-18T11:23:03;95879.69;;;20.47;29.46
69411;BME280;56604;48.652;9.194;2023-03-18T11:25:36;95872.19;;;20.32;29.55
69411;BME280;56604;48.652;9.194;2023-03-18T11:28:04;95866.41;;;20.68;29.86
69411;BME280;56604;48.652;9.194;2023-03-18T11:30:48;95864.56;;;20.51;29.15
69411;BME280;56604;48.652;9.194;2023-03-18T11:33:15;95863.16;;;20.54;29.43
69411;BME280;56604;48.652;9.194;2023-03-18T11:35:50;95860.91;;;20.64;29.45
69411;BME280;56604;48.652;9.194;2023-03-18T11:38:28;95860.84;;;20.35;29.48
69411;BME280;56604;48.652;9.194;2023-03-18T11:41:16;95856.50;;;20.30;28.93
69411;BME280;56604;48.652;9.194;2023-03-18T11:43:57;95852.03;;;20.05;30.05
69411;BME280;56604;48.652;9.194;2023-03-18T11:46:28;95849.53;;;19.99;29.77
69411;BME280;56604;48.652;9.194;2023-03-18T11:48:56;95856.00;;;19.90;29.46
69411;BME280;56604;48.652;9.194;2023-03-18T11:57:25;95848.06;;;20.19;29.86
69411;BME280;56604;48.652;9.194;2023-03-18T12:27:39;95814.00;;;20.46;28.36
69411;BME280;56604;48.652;9.194;2023-03-18T12:37:59;95805.25;;;20.07;29.37
69411;BME280;56604;48.652;9.194;2023-03-18T12:45:42;95798.97;;;20.03;29.80
69411;BME280;56604;48.652;9.194;2023-03-18T12:48:15;95794.53;;;20.16;30.16
69411;BME280;56604;48.652;9.194;2023-03-18T12:50:53;95800.00;;;20.19;29.33
69411;BME280;56604;48.652;9.194;2023-03-18T12:53:29;95801.84;;;19.98;29.11
69411;BME280;56604;48.652;9.194;2023-03-18T12:55:59;95789.84;;;20.13;29.74
69411;BME280;56604;48.652;9.194;2023-03-18T12:58:31;95788.84;;;19.88;28.41
69411;BME280;56604;48.652;9.194;2023-03-18T13:01:05;95781.28;;;19.98;29.51
69411;BME280;56604;48.652;9.194;2023-03-18T13:03:39;95790.69;;;19.96;28.86
69411;BME280;56604;48.652;9.194;2023-03-18T13:14:22;95778.16;;;19.88;28.70
69411;BME280;56604;48.652;9.194;2023-03-18T13:16:48;95781.53;;;19.67;28.45
69411;BME280;56604;48.652;9.194;2023-03-18T13:19:14;95782.78;;;19.44;29.06
69411;BME280;56604;48.652;9.194;2023-03-18T13:21:45;95783.25;;;19.46;28.65
69411;BME280;56604;48.652;9.194;2023-03-18T13:24:28;95777.31;;;19.49;29.45
69411;BME280;56604;48.652;9.194;2023-03-18T13:30:17;95780.75;;;19.58;29.20
69411;BME280;56604;48.652;9.194;2023-03-18T13:35:53;95778.88;;;19.50;29.65
69411;BME280;56604;48.652;9.194;2023-03-18T13:38:46;95771.03;;;19.45;29.38
69411;BME280;56604;48.652;9.194;2023-03-18T13:41:36;95781.09;;;19.30;29.36
69411;BME280;56604;48.652;9.194;2023-03-18T13:44:17;95776.88;;;19.21;29.34
69411;BME280;56604;48.652;9.194;2023-03-18T13:46:56;95771.19;;;19.48;29.08
69411;BME280;56604;48.652;9.194;2023-03-18T13:49:26;95776.03;;;19.55;28.70
69411;BME280;56604;48.652;9.194;2023-03-18T13:51:57;95774.47;;;19.54;28.71
69411;BME280;56604;48.652;9.194;2023-03-18T13:54:31;95765.97;;;19.69;30.04
69411;BME280;56604;48.652;9.194;2023-03-18T13:57:16;95774.44;;;19.71;28.42
69411;BME280;56604;48.652;9.194;2023-03-18T13:59:44;95766.28;;;19.76;28.72
69411;BME280;56604;48.652;9.194;2023-03-18T14:02:33;95772.41;;;19.68;28.65
69411;BME280;56604;48.652;9.194;2023-03-18T14:05:33;95760.22;;;19.50;29.31
69411;BME280;56604;48.652;9.194;2023-03-18T14:08:03;95760.53;;;19.40;29.31
69411;BME280;56604;48.652;9.194;2023-03-18T14:10:29;95763.84;;;19.37;30.36
69411;BME280;56604;48.652;9.194;2023-03-18T14:13:22;95764.03;;;19.23;29.84
69411;BME280;56604;48.652;9.194;2023-03-18T14:15:46;95764.38;;;19.13;30.61
69411;BME280;56604;48.652;9.194;2023-03-18T14:18:21;95771.72;;;19.24;30.42
69411;BME280;56604;48.652;9.194;2023-03-18T14:20:52;95761.06;;;19.24;30.77
69411;BME280;56604;48.652;9.194;2023-03-18T14:23:59;95764.47;;;19.33;30.03
69411;BME280;56604;48.652;9.194;2023-03-18T14:26:26;95769.53;;;19.09;30.13
69411;BME280;56604;48.652;9.194;2023-03-18T14:28:55;95760.88;;;19.21;30.54
69411;BME280;56604;48.652;9.194;2023-03-18T14:34:23;95759.66;;;19.27;31.24
69411;BME280;56604;48.652;9.194;2023-03-18T14:39:41;95751.13;;;19.42;31.12
69411;BME280;56604;48.652;9.194;2023-03-18T14:45:05;95752.22;;;19.50;31.37